Loveland Island — H3BB — position and weather

sailwx.info

Track history (hours):
 
Tides and Currents Weather Stations Pressure Air Temp Water Temp Dewpoint Dewpoint Depression Visibility Wind Speed Wind Dir Waves Ship Positions

Loveland Island

Last reported at 2017-Oct-14 18:02 UTC. Time now 2017-Oct-19 07:08 UTC.
Position N 37°21' E 025°55'.

Length 169 m; draft 9.8 m.

Type: Cargo ship. MMSI: 354174000.

Date/timePositionNaut miles runAvg speedWind from/ knotsBaromVisibWave heightAir tempDewpointWater temp
2017-Oct-14 18:02N 37°21' E 025°55'011.6
2017-Oct-14 18:00N 37°22' E 025°54'611.8
2017-Oct-14 17:30N 37°27' E 025°51'611.6
2017-Oct-14 17:00N 37°32' E 025°47'611.6
2017-Oct-14 16:30N 37°37' E 025°45'611.4
2017-Oct-14 16:00N 37°43' E 025°43'611.5
2017-Oct-14 15:30N 37°48' E 025°41'19710.0
2017-Oct-13 19:52N 40°45' E 027°35'4311.5
2017-Oct-13 16:10N 40°52' E 028°30'211.5
2017-Oct-13 16:00N 40°53' E 028°33'711.3
2017-Oct-13 15:23N 40°54' E 028°42'411.2
2017-Oct-13 15:00N 40°54' E 028°47'610.0
2017-Oct-13 14:24N 40°57' E 028°55'  
2017-Oct-07 04:21N 40°45' E 029°30'410.6
2017-Oct-07 04:00N 40°44' E 029°26'5 9.5
2017-Oct-07 03:30N 40°43' E 029°19'3 6.8
2017-Oct-07 03:00N 40°44' E 029°15'5 9.7
2017-Oct-07 02:30N 40°44' E 029°09'611.8
2017-Oct-07 02:00N 40°43' E 029°01'713.2
2017-Oct-07 01:27N 40°43' E 028°51'13112.0
2017-Oct-06 14:31N 40°00' E 026°09'0 8.5
2017-Oct-06 14:30N 40°00' E 026°09'13211.8
2017-Oct-06 03:16N 37°50' E 025°42'413.9
2017-Oct-06 03:01N 37°46' E 025°42'714.1
2017-Oct-06 02:30N 37°39' E 025°44'713.9
2017-Oct-06 01:59N 37°33' E 025°47'714.1
2017-Oct-06 01:30N 37°28' E 025°53'  
Track history (hours):
 
Tides and Currents Weather Stations Pressure Air Temp Water Temp Dewpoint Dewpoint Depression Visibility Wind Speed Wind Dir Waves Ship Positions

Loveland Island

Last reported at 2017-Oct-14 18:02 UTC. Time now 2017-Oct-19 07:08 UTC.
Position N 37°21' E 025°55'.

Length 169 m; draft 9.8 m.

Type: Cargo ship. MMSI: 354174000.

Date/timePositionNaut miles runAvg speedWind from/ knotsBaromVisibWave heightAir tempDewpointWater temp
2017-Oct-14 18:02N 37°21' E 025°55'011.6
2017-Oct-14 18:00N 37°22' E 025°54'611.8
2017-Oct-14 17:30N 37°27' E 025°51'611.6
2017-Oct-14 17:00N 37°32' E 025°47'611.6
2017-Oct-14 16:30N 37°37' E 025°45'611.4
2017-Oct-14 16:00N 37°43' E 025°43'611.5
2017-Oct-14 15:30N 37°48' E 025°41'19710.0
2017-Oct-13 19:52N 40°45' E 027°35'4311.5
2017-Oct-13 16:10N 40°52' E 028°30'211.5
2017-Oct-13 16:00N 40°53' E 028°33'711.3
2017-Oct-13 15:23N 40°54' E 028°42'411.2
2017-Oct-13 15:00N 40°54' E 028°47'610.0
2017-Oct-13 14:24N 40°57' E 028°55'  
2017-Oct-07 04:21N 40°45' E 029°30'410.6
2017-Oct-07 04:00N 40°44' E 029°26'5 9.5
2017-Oct-07 03:30N 40°43' E 029°19'3 6.8
2017-Oct-07 03:00N 40°44' E 029°15'5 9.7
2017-Oct-07 02:30N 40°44' E 029°09'611.8
2017-Oct-07 02:00N 40°43' E 029°01'713.2
2017-Oct-07 01:27N 40°43' E 028°51'13112.0
2017-Oct-06 14:31N 40°00' E 026°09'0 8.5
2017-Oct-06 14:30N 40°00' E 026°09'13211.8
2017-Oct-06 03:16N 37°50' E 025°42'413.9
2017-Oct-06 03:01N 37°46' E 025°42'714.1
2017-Oct-06 02:30N 37°39' E 025°44'713.9
2017-Oct-06 01:59N 37°33' E 025°47'714.1
2017-Oct-06 01:30N 37°28' E 025°53'  

Dump ship's entire track history